Time;durP1;ratioP1;P1;durP2;ratioP2;P2;SDS_P1;SDS_P2;PMS_P1;PMS_P2;Temp;Humidity;BMP_temperature;BMP_pressure;BME280_temperature;BME280_humidity;BME280_pressure;Samples;Min_cycle;Max_cycle;Signal;HPM_P1;HPM_P2
2022/08/04 00:01:31;;;;;;;0.70;0.70;;;23.80;56.60;24.30;96464.00;;;;5093894;28;20230;-87
2022/08/04 00:04:04;;;;;;;0.63;0.63;;;23.80;56.50;24.30;96459.00;;;;5094092;28;20215;-87
2022/08/04 00:06:47;;;;;;;3.80;1.00;;;23.80;56.50;24.30;96457.00;;;;5093875;28;20235;-86
2022/08/04 00:09:24;;;;;;;0.90;0.90;;;23.80;56.70;24.30;96461.00;;;;5093936;28;20257;-87
2022/08/04 00:11:57;;;;;;;1.00;0.87;;;23.80;56.60;24.30;96460.00;;;;5093818;28;20722;-86
2022/08/04 00:14:27;;;;;;;0.80;0.80;;;23.70;56.50;24.20;96466.00;;;;5093866;28;20223;-86
2022/08/04 00:16:55;;;;;;;1.37;0.83;;;23.70;56.50;24.20;96464.00;;;;5093709;28;20235;-86
2022/08/04 00:19:32;;;;;;;1.20;1.10;;;23.70;56.70;24.20;96465.00;;;;5093642;28;20213;-87
2022/08/04 00:22:04;;;;;;;1.27;0.90;;;23.70;57.00;24.10;96468.00;;;;5086662;28;20308;-86
2022/08/04 00:24:34;;;;;;;2.07;1.10;;;23.60;56.90;24.10;96468.00;;;;5090247;28;20252;-86
2022/08/04 00:27:02;;;;;;;2.00;0.90;;;23.60;56.90;24.10;96467.00;;;;5081414;28;20306;-86
2022/08/04 00:29:29;;;;;;;1.97;1.20;;;23.50;57.00;24.00;96468.00;;;;5093496;28;20226;-86
2022/08/04 00:31:57;;;;;;;0.80;0.70;;;23.50;57.10;24.00;96464.00;;;;5093542;28;20282;-87
2022/08/04 00:34:27;;;;;;;1.30;1.20;;;23.50;57.30;24.00;96467.00;;;;5093680;28;20289;-86
2022/08/04 00:36:56;;;;;;;1.57;1.00;;;23.40;57.30;23.90;96462.00;;;;5092631;28;20274;-86
2022/08/04 00:39:25;;;;;;;1.43;0.90;;;23.40;57.50;23.90;96465.00;;;;5093055;28;20206;-86
2022/08/04 00:42:33;;;;;;;1.90;0.90;;;23.40;57.60;23.90;96472.00;;;;5085438;28;20205;-86
2022/08/04 00:45:40;;;;;;;1.03;0.93;;;23.40;58.10;23.90;96464.00;;;;5085909;28;20215;-86
2022/08/04 00:48:28;;;;;;;1.07;0.70;;;23.40;58.00;23.80;96465.00;;;;5080633;28;20199;-86
2022/08/04 00:51:15;;;;;;;0.77;0.77;;;23.30;57.90;23.80;96459.00;;;;5094351;28;20657;-86
2022/08/04 00:53:59;;;;;;;1.03;0.90;;;23.30;58.00;23.80;96462.00;;;;5093983;28;20265;-86
2022/08/04 00:57:13;;;;;;;0.80;0.80;;;23.30;58.00;23.80;96461.00;;;;5094842;28;20199;-86
2022/08/04 01:00:04;;;;;;;1.27;1.00;;;23.30;58.20;23.80;96460.00;;;;5094627;28;20191;-86
2022/08/04 01:02:39;;;;;;;0.67;0.60;;;23.30;58.20;23.80;96459.00;;;;5083422;28;20195;-86
2022/08/04 01:05:19;;;;;;;0.80;0.80;;;23.20;58.00;23.70;96456.00;;;;5093918;28;20221;-86
2022/08/04 01:08:15;;;;;;;0.93;0.80;;;23.20;58.00;23.70;96459.00;;;;5094004;28;20256;-86
2022/08/04 01:10:59;;;;;;;0.80;0.80;;;23.20;58.30;23.70;96455.00;;;;5093013;28;20249;-86
2022/08/04 01:14:10;;;;;;;1.10;0.90;;;23.20;58.20;23.70;96455.00;;;;5089827;28;20663;-86
2022/08/04 01:16:49;;;;;;;0.97;0.97;;;23.20;58.40;23.60;96451.00;;;;5079531;28;20248;-86
2022/08/04 01:20:02;;;;;;;1.10;1.00;;;23.10;58.20;23.60;96457.00;;;;5092750;28;20205;-86
2022/08/04 01:23:28;;;;;;;1.43;0.83;;;23.10;58.40;23.60;96460.00;;;;5090268;28;20206;-86
2022/08/04 01:26:31;;;;;;;4.10;1.10;;;23.10;58.60;23.50;96454.00;;;;5091677;28;20264;-86
2022/08/04 01:29:08;;;;;;;0.60;0.60;;;23.10;58.50;23.50;96447.00;;;;5090159;28;20301;-86
2022/08/04 01:31:56;;;;;;;0.80;0.80;;;23.00;58.40;23.50;96453.00;;;;5092970;28;20206;-86
2022/08/04 01:34:28;;;;;;;0.93;0.93;;;23.00;58.50;23.50;96451.00;;;;5092681;28;20573;-86
2022/08/04 01:37:03;;;;;;;1.40;1.10;;;23.00;58.40;23.50;96455.00;;;;5092104;28;20530;-85
2022/08/04 01:39:41;;;;;;;0.73;0.73;;;22.90;58.60;23.40;96448.00;;;;5092521;28;20565;-86
2022/08/04 01:42:11;;;;;;;0.90;0.90;;;22.90;58.60;23.40;96448.00;;;;5093004;28;20187;-86
2022/08/04 01:44:41;;;;;;;1.20;1.10;;;22.90;58.50;23.40;96447.00;;;;5089688;28;20239;-86
2022/08/04 01:47:10;;;;;;;0.87;0.87;;;22.90;58.60;23.40;96448.00;;;;5092208;28;20211;-86
2022/08/04 01:49:39;;;;;;;0.77;0.77;;;22.90;58.70;23.40;96452.00;;;;5092646;28;20225;-86
2022/08/04 01:52:10;;;;;;;1.73;0.90;;;22.90;58.80;23.30;96442.00;;;;5092292;28;20202;-86
2022/08/04 01:54:42;;;;;;;1.20;0.83;;;22.80;58.70;23.30;96453.00;;;;5092477;28;20245;-86
2022/08/04 01:57:11;;;;;;;3.63;1.10;;;22.80;58.90;23.30;96448.00;;;;5091852;28;20250;-86
2022/08/04 01:59:43;;;;;;;0.90;0.90;;;22.80;58.80;23.20;96445.00;;;;5092210;28;20199;-86
2022/08/04 02:02:11;;;;;;;0.90;0.90;;;22.70;58.80;23.20;96447.00;;;;5091070;28;20703;-86
2022/08/04 02:04:38;;;;;;;1.10;1.10;;;22.70;58.80;23.20;96447.00;;;;5091822;28;20246;-86
2022/08/04 02:07:23;;;;;;;0.93;0.90;;;22.70;58.90;23.10;96442.00;;;;5091787;28;20294;-87
2022/08/04 02:10:04;;;;;;;1.20;0.90;;;22.70;59.40;23.10;96445.00;;;;5091517;28;20230;-86
2022/08/04 02:12:53;;;;;;;1.23;0.90;;;22.60;59.20;23.00;96446.00;;;;5091689;28;20201;-86
2022/08/04 02:15:30;;;;;;;1.33;0.90;;;22.60;59.60;23.00;96448.00;;;;5091140;28;20196;-87
2022/08/04 02:18:04;;;;;;;1.17;1.00;;;22.50;59.50;23.00;96445.00;;;;5092061;28;20693;-86
2022/08/04 02:20:35;;;;;;;1.23;1.00;;;22.50;59.50;23.00;96443.00;;;;5091717;28;20298;-86
2022/08/04 02:23:07;;;;;;;0.83;0.83;;;22.50;59.70;23.00;96444.00;;;;5091855;28;20574;-86
2022/08/04 02:25:45;;;;;;;1.07;1.07;;;22.50;59.80;22.90;96441.00;;;;5091313;28;20640;-87
2022/08/04 02:28:27;;;;;;;1.70;0.90;;;22.40;60.00;22.90;96443.00;;;;5086681;28;20256;-86
2022/08/04 02:31:08;;;;;;;0.80;0.80;;;22.40;60.10;22.90;96449.00;;;;5089920;28;20645;-86
2022/08/04 02:33:40;;;;;;;1.00;1.00;;;22.40;61.20;22.80;96443.00;;;;5091592;28;20250;-87
2022/08/04 02:36:11;;;;;;;2.03;1.07;;;22.30;60.30;22.80;96445.00;;;;5091337;28;20195;-86
2022/08/04 02:38:55;;;;;;;1.07;0.90;;;22.30;60.30;22.80;96440.00;;;;5091647;28;20290;-87
2022/08/04 02:41:25;;;;;;;0.87;0.87;;;22.30;60.70;22.80;96443.00;;;;5091639;28;20709;-86
2022/08/04 02:43:56;;;;;;;1.27;0.90;;;22.30;60.30;22.80;96440.00;;;;5091388;28;20251;-87
2022/08/04 02:46:27;;;;;;;1.00;1.00;;;22.30;60.50;22.70;96440.00;;;;5090804;28;20242;-86
2022/08/04 02:48:56;;;;;;;0.90;0.90;;;22.20;60.50;22.70;96432.00;;;;5071684;28;20286;-87
2022/08/04 02:51:28;;;;;;;1.07;0.97;;;22.20;60.50;22.70;96425.00;;;;5079310;28;20590;-86
2022/08/04 02:53:59;;;;;;;1.50;0.90;;;22.20;60.70;22.70;96430.00;;;;5091091;28;20217;-86
2022/08/04 02:56:32;;;;;;;0.80;0.80;;;22.20;60.80;22.60;96423.00;;;;5090402;28;20249;-86
2022/08/04 02:59:02;;;;;;;2.13;0.80;;;22.10;60.90;22.60;96426.00;;;;5091733;28;20223;-86
2022/08/04 03:01:31;;;;;;;1.63;1.03;;;22.10;61.00;22.60;96424.00;;;;5091619;28;20242;-87
2022/08/04 03:04:23;;;;;;;1.30;0.77;;;22.10;61.10;22.60;96431.00;;;;5091472;28;20246;-87
2022/08/04 03:07:29;;;;;;;0.80;0.80;;;22.10;61.70;22.60;96425.00;;;;5090386;28;20753;-86
2022/08/04 03:10:36;;;;;;;1.80;0.93;;;22.10;61.70;22.60;96425.00;;;;5091769;28;20222;-86
2022/08/04 03:13:48;;;;;;;0.90;0.90;;;22.10;61.80;22.60;96421.00;;;;5093236;28;20270;-86
2022/08/04 03:17:05;;;;;;;0.93;0.80;;;22.10;61.70;22.50;96424.00;;;;5095376;28;20199;-86
2022/08/04 03:20:28;;;;;;;1.10;1.00;;;22.10;61.50;22.50;96433.00;;;;5069893;28;20545;-86
2022/08/04 03:23:52;;;;;;;1.20;1.10;;;22.00;61.60;22.50;96431.00;;;;5102094;28;20227;-86
2022/08/04 03:27:11;;;;;;;1.70;1.00;;;22.00;61.60;22.40;96425.00;;;;5077297;28;20564;-86
2022/08/04 03:30:10;;;;;;;2.07;1.10;;;22.00;61.50;22.40;96427.00;;;;5089474;28;20248;-86
2022/08/04 03:33:34;;;;;;;1.03;1.03;;;21.90;61.50;22.30;96428.00;;;;5095038;28;20742;-86
2022/08/04 03:37:08;;;;;;;2.07;1.13;;;21.90;61.70;22.20;96430.00;;;;5079506;28;20229;-86
2022/08/04 03:40:22;;;;;;;0.97;0.87;;;21.80;62.20;22.20;96431.00;;;;5032870;28;20666;-87
2022/08/04 03:43:44;;;;;;;1.20;1.10;;;21.80;62.60;22.20;96436.00;;;;5094469;28;20233;-86
2022/08/04 03:46:59;;;;;;;1.00;1.00;;;21.80;62.20;22.20;96431.00;;;;5094004;28;20246;-86
2022/08/04 03:50:18;;;;;;;1.20;1.10;;;21.70;62.20;22.10;96424.00;;;;5075920;28;20227;-86
2022/08/04 03:53:26;;;;;;;1.13;1.07;;;21.70;62.20;22.10;96433.00;;;;5091948;28;20279;-85
2022/08/04 03:56:32;;;;;;;1.43;0.80;;;21.70;62.40;22.00;96433.00;;;;5071360;28;20638;-86
2022/08/04 03:59:42;;;;;;;1.50;1.23;;;21.60;62.40;22.00;96431.00;;;;5094837;28;20225;-86
2022/08/04 04:03:09;;;;;;;2.37;0.90;;;21.60;62.70;22.00;96426.00;;;;5089372;28;20651;-86
2022/08/04 04:06:13;;;;;;;1.40;1.30;;;21.60;62.80;22.00;96427.00;;;;5050826;28;20188;-86
2022/08/04 04:09:27;;;;;;;1.00;1.00;;;21.60;62.80;21.90;96427.00;;;;5095463;28;20207;-86
2022/08/04 04:12:28;;;;;;;0.90;0.90;;;21.50;62.80;21.90;96436.00;;;;5081683;28;20285;-86
2022/08/04 04:15:12;;;;;;;1.83;1.17;;;21.50;62.70;21.90;96441.00;;;;5084397;28;20207;-86
2022/08/04 04:18:16;;;;;;;1.77;1.27;;;21.40;62.60;21.80;96429.00;;;;5094764;28;20560;-86
2022/08/04 04:21:28;;;;;;;1.30;1.10;;;21.50;63.20;21.80;96437.00;;;;5091352;28;20293;-87
2022/08/04 04:24:23;;;;;;;1.33;1.23;;;21.40;63.40;21.80;96431.00;;;;5063190;28;20227;-84
2022/08/04 04:27:00;;;;;;;1.10;1.10;;;21.40;63.20;21.80;96432.00;;;;5095701;28;20298;-82
2022/08/04 04:30:04;;;;;;;2.47;1.17;;;21.40;63.20;21.80;96432.00;;;;5096390;28;20792;-83
2022/08/04 04:32:52;;;;;;;1.80;1.40;;;21.30;63.40;21.80;96430.00;;;;5052798;28;20720;-82
2022/08/04 04:35:33;;;;;;;1.57;1.40;;;21.30;63.40;21.80;96440.00;;;;5095906;28;20614;-82
2022/08/04 04:38:48;;;;;;;1.30;1.20;;;21.30;63.50;21.70;96447.00;;;;5078979;28;20194;-86
2022/08/04 04:41:41;;;;;;;1.40;1.30;;;21.20;64.00;21.70;96443.00;;;;5086763;28;20201;-86
2022/08/04 04:45:02;;;;;;;1.10;1.03;;;21.20;63.90;21.70;96445.00;;;;5092925;28;20243;-86
2022/08/04 04:47:46;;;;;;;2.37;1.43;;;21.20;64.50;21.70;96464.00;;;;5031011;28;20727;-86
2022/08/04 04:50:26;;;;;;;2.43;1.60;;;21.20;64.30;21.70;96465.00;;;;5088206;28;20284;-86
2022/08/04 04:53:02;;;;;;;2.33;1.50;;;21.20;64.40;21.70;96455.00;;;;5092964;28;20205;-85
2022/08/04 04:55:42;;;;;;;1.37;1.27;;;21.20;64.60;21.70;96457.00;;;;5092420;28;20274;-86
2022/08/04 04:58:16;;;;;;;1.30;1.20;;;21.20;64.90;21.80;96462.00;;;;5093324;28;20600;-86
2022/08/04 05:01:16;;;;;;;1.60;1.50;;;21.20;65.00;21.80;96465.00;;;;5093121;28;20288;-84
2022/08/04 05:04:29;;;;;;;3.37;1.83;;;21.20;65.40;21.80;96456.00;;;;5092849;28;20783;-86
2022/08/04 05:07:30;;;;;;;2.93;1.60;;;21.20;65.40;21.70;96456.00;;;;5067188;28;20220;-85
2022/08/04 05:10:12;;;;;;;2.80;1.43;;;21.30;65.40;21.80;96461.00;;;;5093195;28;20285;-86
2022/08/04 05:13:02;;;;;;;2.60;1.47;;;21.30;65.40;21.80;96465.00;;;;5093563;28;20183;-86
2022/08/04 05:15:37;;;;;;;1.40;1.30;;;21.30;65.70;21.80;96466.00;;;;5092413;28;20250;-86
2022/08/04 05:18:10;;;;;;;1.87;1.60;;;21.30;65.30;21.80;96461.00;;;;5092827;28;20645;-86
2022/08/04 05:20:43;;;;;;;1.87;1.70;;;21.30;65.50;21.80;96458.00;;;;5092676;28;20242;-86
2022/08/04 05:23:19;;;;;;;1.60;1.50;;;21.30;65.50;21.80;96460.00;;;;5092642;28;20310;-86
2022/08/04 05:25:53;;;;;;;3.20;1.50;;;21.30;65.70;21.90;96467.00;;;;5091511;28;20218;-85
2022/08/04 05:28:27;;;;;;;1.57;1.47;;;21.30;66.60;21.90;96461.00;;;;5091159;28;20242;-86
2022/08/04 05:31:01;;;;;;;1.50;1.40;;;21.40;65.80;21.90;96454.00;;;;5071842;28;20235;-86
2022/08/04 05:33:39;;;;;;;1.63;1.53;;;21.40;66.10;22.00;96460.00;;;;5073172;28;20258;-86
2022/08/04 05:36:16;;;;;;;1.93;1.60;;;21.40;66.30;22.00;96456.00;;;;5091249;28;20190;-86
2022/08/04 05:38:45;;;;;;;2.60;1.60;;;21.40;66.40;22.10;96460.00;;;;5093015;28;20238;-86
2022/08/04 05:41:14;;;;;;;1.90;1.80;;;21.40;66.30;22.10;96458.00;;;;5092571;28;20200;-85
2022/08/04 05:43:45;;;;;;;2.83;1.63;;;21.50;66.50;22.10;96459.00;;;;5091697;28;20239;-86
2022/08/04 05:46:16;;;;;;;1.83;1.73;;;21.50;66.80;22.20;96458.00;;;;5089960;28;20520;-86
2022/08/04 05:48:46;;;;;;;2.13;2.03;;;21.50;66.90;22.20;96468.00;;;;5091522;28;20233;-86
2022/08/04 05:51:15;;;;;;;3.27;2.27;;;21.60;66.90;22.30;96463.00;;;;5092256;28;20242;-86
2022/08/04 05:53:45;;;;;;;3.57;3.27;;;21.60;66.90;22.30;96459.00;;;;5074842;28;20265;-86
2022/08/04 05:56:15;;;;;;;4.20;3.30;;;21.70;67.00;22.40;96455.00;;;;5071449;28;20200;-86
2022/08/04 05:58:45;;;;;;;3.57;3.07;;;21.70;66.90;22.40;96463.00;;;;5071824;28;20204;-86
2022/08/04 06:01:17;;;;;;;3.40;3.10;;;21.80;67.00;22.50;96471.00;;;;5082410;28;20286;-86
2022/08/04 06:03:47;;;;;;;3.60;3.30;;;21.80;67.30;22.60;96461.00;;;;5091773;28;20225;-85
2022/08/04 06:06:18;;;;;;;4.60;3.60;;;21.90;67.10;22.60;96462.00;;;;5091343;28;20202;-86
2022/08/04 06:08:46;;;;;;;4.00;3.33;;;21.90;67.10;22.70;96471.00;;;;5091021;28;20281;-86
2022/08/04 06:11:16;;;;;;;3.53;3.23;;;22.00;67.00;22.80;96472.00;;;;5091707;28;20199;-86
2022/08/04 06:13:48;;;;;;;3.37;3.07;;;22.10;67.20;22.80;96470.00;;;;5092133;28;20647;-86
2022/08/04 06:16:22;;;;;;;3.60;3.23;;;22.10;67.20;22.90;96460.00;;;;5091444;28;20615;-86
2022/08/04 06:18:54;;;;;;;4.57;3.20;;;22.20;67.30;23.00;96469.00;;;;5091803;28;20282;-86
2022/08/04 06:21:24;;;;;;;3.40;3.00;;;22.30;67.20;23.00;96463.00;;;;5091359;28;20241;-86
2022/08/04 06:23:55;;;;;;;2.90;2.70;;;22.30;67.20;23.10;96470.00;;;;5073707;28;20223;-88
2022/08/04 06:26:25;;;;;;;3.90;2.97;;;22.40;67.10;23.20;96459.00;;;;5071277;28;20651;-85
2022/08/04 06:28:54;;;;;;;3.20;3.00;;;22.50;67.00;23.20;96466.00;;;;5071336;28;20575;-86
2022/08/04 06:31:41;;;;;;;2.93;2.73;;;22.50;66.80;23.30;96462.00;;;;5083204;28;20199;-86
2022/08/04 06:34:12;;;;;;;3.37;3.07;;;22.60;66.80;23.40;96465.00;;;;5091678;28;20221;-86
2022/08/04 06:36:41;;;;;;;2.90;2.70;;;22.70;66.70;23.50;96463.00;;;;5091277;28;20191;-86
2022/08/04 06:39:11;;;;;;;3.13;2.83;;;22.80;66.80;23.50;96458.00;;;;5091611;28;20199;-86
2022/08/04 06:41:39;;;;;;;2.93;2.60;;;22.80;66.70;23.60;96461.00;;;;5091523;28;20227;-86
2022/08/04 06:44:11;;;;;;;3.73;2.80;;;22.90;66.60;23.70;96465.00;;;;5091183;28;20207;-87
2022/08/04 06:46:43;;;;;;;3.13;2.53;;;23.00;66.70;23.70;96460.00;;;;5091219;28;20282;-86
2022/08/04 06:49:12;;;;;;;2.70;2.50;;;23.00;66.70;23.80;96461.00;;;;5094829;28;20227;-86
2022/08/04 06:51:41;;;;;;;2.60;2.40;;;23.10;66.60;23.90;96464.00;;;;5095426;28;20286;-86
2022/08/04 06:54:08;;;;;;;3.67;2.57;;;23.20;66.70;24.00;96461.00;;;;5074606;28;20219;-86
2022/08/04 06:56:39;;;;;;;2.43;2.23;;;23.30;66.70;24.10;96458.00;;;;5075118;28;20228;-86
2022/08/04 06:59:08;;;;;;;2.87;2.63;;;23.30;66.80;24.20;96458.00;;;;5075058;28;20227;-87
2022/08/04 07:01:37;;;;;;;2.40;2.23;;;23.40;66.90;24.30;96467.00;;;;5089145;28;20768;-87
2022/08/04 07:04:06;;;;;;;2.43;2.23;;;23.50;66.90;24.40;96468.00;;;;5093587;28;20512;-87
2022/08/04 07:06:34;;;;;;;4.17;2.17;;;23.60;67.00;24.50;96463.00;;;;5094453;28;20283;-87
2022/08/04 07:09:02;;;;;;;2.20;2.00;;;23.70;67.00;24.60;96460.00;;;;5094992;28;20255;-87
2022/08/04 07:11:32;;;;;;;2.40;2.20;;;23.80;66.90;24.70;96459.00;;;;5094841;28;20196;-87
2022/08/04 07:14:00;;;;;;;2.10;2.00;;;23.90;66.80;24.80;96464.00;;;;5087972;28;20245;-87
2022/08/04 07:16:29;;;;;;;4.30;2.27;;;24.00;66.70;24.90;96466.00;;;;5074839;28;20628;-86
2022/08/04 07:18:56;;;;;;;2.17;2.00;;;24.10;66.70;25.10;96474.00;;;;5091037;28;20193;-86
2022/08/04 07:21:26;;;;;;;4.13;1.90;;;24.20;66.60;25.20;96460.00;;;;5104133;28;20206;-87
2022/08/04 07:23:53;;;;;;;2.03;1.93;;;24.30;67.40;25.40;96472.00;;;;5102042;28;20310;-86
2022/08/04 07:26:26;;;;;;;2.33;2.13;;;24.50;66.60;25.60;96474.00;;;;5092516;28;20206;-87
2022/08/04 07:28:53;;;;;;;1.60;1.50;;;24.60;66.50;25.80;96471.00;;;;5076389;28;20690;-87
2022/08/04 07:31:23;;;;;;;2.60;1.87;;;24.80;66.70;26.00;96475.00;;;;5074557;28;20248;-87
2022/08/04 07:33:52;;;;;;;1.90;1.80;;;24.90;66.30;26.30;96476.00;;;;5074646;28;20291;-87
2022/08/04 07:36:19;;;;;;;2.27;2.07;;;25.10;66.80;26.50;96480.00;;;;5074080;28;20235;-87
2022/08/04 07:38:48;;;;;;;4.03;1.90;;;25.30;65.50;26.70;96490.00;;;;5079330;28;20247;-86
2022/08/04 07:41:22;;;;;;;4.97;1.97;;;25.50;65.50;26.90;96474.00;;;;5094728;28;20295;-86
2022/08/04 07:43:50;;;;;;;4.30;2.00;;;25.70;65.20;27.10;96478.00;;;;5095191;28;20226;-86
2022/08/04 07:46:18;;;;;;;3.20;2.03;;;25.90;65.20;27.40;96490.00;;;;5094549;28;20668;-87
2022/08/04 07:48:45;;;;;;;5.27;1.90;;;26.10;64.80;27.50;96489.00;;;;5082641;28;20227;-86
2022/08/04 07:51:13;;;;;;;3.13;2.00;;;26.30;64.40;27.70;96480.00;;;;5095038;28;20893;-86
2022/08/04 07:53:42;;;;;;;2.40;2.00;;;26.50;63.80;27.90;96489.00;;;;5089871;28;20302;-86
2022/08/04 07:56:15;;;;;;;2.57;1.77;;;26.70;64.60;28.10;96473.00;;;;5082516;28;20622;-86
2022/08/04 07:58:43;;;;;;;3.40;1.70;;;26.80;63.30;28.30;96483.00;;;;5094423;28;20187;-86
2022/08/04 08:01:11;;;;;;;3.17;2.10;;;27.10;63.40;28.50;96483.00;;;;5093834;28;20195;-86
2022/08/04 08:03:41;;;;;;;2.23;2.07;;;27.30;63.10;28.70;96480.00;;;;5094100;28;20242;-87
2022/08/04 08:06:09;;;;;;;3.17;2.38;;;27.40;62.40;28.90;96484.00;;;;5094128;28;20200;-87
2022/08/04 08:08:39;;;;;;;3.63;2.00;;;27.60;62.30;29.10;96489.00;;;;5093999;28;20307;-87
2022/08/04 08:11:08;;;;;;;2.67;1.80;;;27.80;61.90;29.30;96489.00;;;;5094140;28;20702;-87
2022/08/04 08:13:37;;;;;;;2.50;1.70;;;28.00;62.00;29.40;96491.00;;;;5094217;28;20250;-87
2022/08/04 08:16:05;;;;;;;1.73;1.63;;;28.10;61.40;29.60;96491.00;;;;5093410;28;20227;-86
2022/08/04 08:18:33;;;;;;;1.95;1.75;;;28.30;61.10;29.80;96480.00;;;;5094026;28;20191;-87
2022/08/04 08:21:00;;;;;;;4.35;1.75;;;28.50;60.40;30.00;96487.00;;;;5093531;28;20740;-86
2022/08/04 08:23:31;;;;;;;2.63;1.95;;;28.60;59.80;30.10;96492.00;;;;5079116;28;20247;-87
2022/08/04 08:25:59;;;;;;;2.33;1.45;;;28.80;59.50;30.30;96486.00;;;;5073684;28;20216;-87
2022/08/04 08:28:27;;;;;;;1.90;1.48;;;29.00;59.70;30.50;96490.00;;;;5073505;28;20219;-86
2022/08/04 08:30:56;;;;;;;1.75;1.65;;;29.20;59.40;30.70;96487.00;;;;5082595;28;20207;-87
2022/08/04 08:33:25;;;;;;;3.88;1.50;;;29.40;59.20;30.90;96487.00;;;;5085577;28;20287;-86
2022/08/04 08:36:00;;;;;;;3.70;1.48;;;29.50;58.70;31.10;96487.00;;;;5093139;28;20194;-87
2022/08/04 08:38:51;;;;;;;1.90;1.30;;;29.70;58.60;31.40;96493.00;;;;5089565;28;20789;-88
2022/08/04 08:42:16;;;;;;;1.55;1.45;;;29.90;56.90;31.60;96489.00;;;;5073266;28;20226;-87
2022/08/04 08:45:39;;;;;;;1.92;1.10;;;30.10;56.70;31.90;96494.00;;;;5038132;28;20258;-87
2022/08/04 08:48:51;;;;;;;1.00;1.00;;;30.40;56.20;32.20;96496.00;;;;5071405;28;20321;-88
2022/08/04 08:51:38;;;;;;;1.92;1.23;;;30.60;56.10;32.40;96495.00;;;;5084082;28;20191;-87
2022/08/04 08:54:51;;;;;;;1.10;1.10;;;30.80;55.40;32.70;96494.00;;;;5091137;28;20704;-88
2022/08/04 08:57:40;;;;;;;2.42;1.38;;;31.10;54.50;32.90;96503.00;;;;5093271;28;20222;-87
2022/08/04 09:00:16;;;;;;;1.70;1.05;;;31.30;55.30;33.10;96504.00;;;;5093345;28;20184;-88
2022/08/04 09:03:32;;;;;;;1.17;1.17;;;31.50;55.10;33.30;96500.00;;;;5091746;28;20282;-87
2022/08/04 09:06:28;;;;;;;1.05;1.05;;;31.70;54.60;33.60;96506.00;;;;5092573;28;20282;-88
2022/08/04 09:09:54;;;;;;;1.20;1.20;;;31.90;54.30;33.80;96499.00;;;;5092914;28;20239;-88
2022/08/04 09:12:30;;;;;;;1.42;1.33;;;32.10;53.90;34.10;96501.00;;;;5079276;28;20727;-87
2022/08/04 09:15:09;;;;;;;1.10;1.10;;;32.30;53.90;34.30;96509.00;;;;5072188;28;20304;-88
2022/08/04 09:17:54;;;;;;;0.95;0.95;;;32.50;53.10;34.50;96513.00;;;;5072558;28;20281;-87
2022/08/04 09:20:34;;;;;;;1.00;1.00;;;32.70;53.00;34.70;96507.00;;;;5072546;28;20199;-88
2022/08/04 09:23:15;;;;;;;1.02;1.02;;;32.90;52.20;35.00;96506.00;;;;5083640;28;20290;-88
2022/08/04 09:25:51;;;;;;;1.70;1.40;;;33.10;51.80;35.20;96513.00;;;;5081815;28;20592;-88
2022/08/04 09:28:26;;;;;;;1.67;1.10;;;33.30;51.80;35.40;96510.00;;;;5092449;28;20696;-88
2022/08/04 09:31:06;;;;;;;2.53;1.30;;;33.50;51.00;35.60;96508.00;;;;5092419;28;20293;-88
2022/08/04 09:33:49;;;;;;;0.80;0.80;;;33.80;51.00;35.80;96504.00;;;;5092881;28;20684;-88
2022/08/04 09:36:34;;;;;;;1.55;1.33;;;34.00;50.70;36.00;96504.00;;;;5096523;28;20210;-88
2022/08/04 09:39:24;;;;;;;1.05;1.00;;;34.20;50.70;36.30;96503.00;;;;5113101;28;20209;-88
2022/08/04 09:42:09;;;;;;;1.20;1.20;;;34.50;50.00;36.50;96501.00;;;;5112747;28;20205;-88
2022/08/04 09:44:52;;;;;;;1.55;1.27;;;34.70;50.00;36.80;96503.00;;;;5111371;28;20775;-88
2022/08/04 09:47:30;;;;;;;1.30;1.17;;;34.90;49.50;37.00;96502.00;;;;5093373;28;20210;-88
2022/08/04 09:50:12;;;;;;;0.82;0.82;;;35.00;49.20;37.30;96504.00;;;;5090861;28;20719;-88
2022/08/04 09:52:48;;;;;;;1.02;0.93;;;35.20;48.90;37.50;96497.00;;;;5091249;28;20191;-88
2022/08/04 09:55:37;;;;;;;2.13;1.05;;;35.40;48.20;37.80;96499.00;;;;5091945;28;20286;-87
2022/08/04 09:58:15;;;;;;;0.90;0.90;;;35.60;47.40;38.00;96498.00;;;;5072564;28;20595;-88
2022/08/04 10:00:51;;;;;;;1.23;1.20;;;35.70;47.40;38.20;96502.00;;;;5092110;28;20202;-88
2022/08/04 10:03:30;;;;;;;1.50;1.30;;;35.90;47.30;38.50;96493.00;;;;5088015;28;20290;-89
2022/08/04 10:06:15;;;;;;;1.50;1.40;;;36.10;47.00;38.70;96491.00;;;;5086721;28;20206;-88
2022/08/04 10:09:08;;;;;;;1.20;1.10;;;36.40;46.00;38.90;96491.00;;;;5092108;28;20234;-88
2022/08/04 10:11:55;;;;;;;1.05;1.00;;;36.50;45.70;39.10;96494.00;;;;5092283;28;20267;-89
2022/08/04 10:14:40;;;;;;;1.20;1.10;;;36.70;46.20;39.30;96492.00;;;;5091712;28;20745;-89
2022/08/04 10:17:33;;;;;;;0.90;0.90;;;36.90;44.80;39.50;96495.00;;;;5086251;28;20251;-88
2022/08/04 10:20:09;;;;;;;4.15;0.93;;;37.20;44.20;39.60;96493.00;;;;5083995;28;20287;-89
2022/08/04 10:22:51;;;;;;;1.77;1.00;;;37.30;44.60;39.70;96493.00;;;;5092278;28;20753;-89
2022/08/04 10:25:39;;;;;;;0.82;0.82;;;37.50;44.00;39.70;96493.00;;;;5103527;28;20191;-88
2022/08/04 10:28:16;;;;;;;1.73;1.00;;;37.60;43.90;39.80;96496.00;;;;5099869;28;20219;-89
2022/08/04 10:30:51;;;;;;;1.05;0.90;;;37.70;43.80;39.90;96491.00;;;;5096353;28;20194;-89
2022/08/04 10:33:27;;;;;;;0.85;0.85;;;37.90;42.70;39.80;96495.00;;;;5096244;28;20535;-89
2022/08/04 10:36:02;;;;;;;2.55;0.80;;;38.00;42.60;39.80;96489.00;;;;5096228;28;20636;-88
2022/08/04 10:38:34;;;;;;;0.90;0.90;;;38.10;42.60;39.80;96491.00;;;;5095424;28;20622;-88
2022/08/04 10:41:12;;;;;;;0.82;0.82;;;38.10;42.30;39.80;96485.00;;;;5096564;28;20648;-88
2022/08/04 10:43:49;;;;;;;0.80;0.60;;;38.20;41.30;39.80;96485.00;;;;5096550;28;20292;-88
2022/08/04 10:46:25;;;;;;;0.70;0.70;;;38.20;40.70;39.80;96480.00;;;;5096490;28;20190;-88
2022/08/04 10:48:57;;;;;;;0.60;0.60;;;38.30;40.60;39.80;96476.00;;;;5078725;28;20242;-88
2022/08/04 10:51:35;;;;;;;0.90;0.90;;;38.40;40.30;39.70;96473.00;;;;5087130;28;20207;-88
2022/08/04 10:54:08;;;;;;;0.80;0.80;;;38.40;39.90;39.70;96474.00;;;;5096483;28;20244;-89
2022/08/04 10:56:46;;;;;;;1.23;0.80;;;38.40;39.90;39.70;96474.00;;;;5096075;28;20199;-88
2022/08/04 10:59:21;;;;;;;0.75;0.75;;;38.40;39.00;39.60;96467.00;;;;5095905;28;20631;-88
2022/08/04 11:01:55;;;;;;;0.63;0.60;;;38.40;39.00;39.50;96469.00;;;;5095019;28;20670;-89
2022/08/04 11:04:29;;;;;;;2.15;0.75;;;38.40;38.40;39.40;96460.00;;;;5094914;28;20218;-88
2022/08/04 11:06:59;;;;;;;1.27;0.77;;;38.40;37.70;39.20;96466.00;;;;5094295;28;20648;-88
2022/08/04 11:09:30;;;;;;;0.60;0.60;;;38.30;37.50;39.00;96463.00;;;;5093429;28;20222;-88
2022/08/04 11:12:07;;;;;;;4.97;0.80;;;38.10;36.90;38.80;96462.00;;;;5115646;28;20175;-89
2022/08/04 11:14:42;;;;;;;1.58;0.65;;;38.10;36.70;38.50;96456.00;;;;5111368;28;20226;-88
2022/08/04 11:17:19;;;;;;;0.50;0.50;;;37.90;36.90;38.30;96459.00;;;;5094255;28;20609;-88
2022/08/04 11:19:52;;;;;;;0.60;0.60;;;37.70;37.00;38.20;96463.00;;;;5094662;28;20207;-88
2022/08/04 11:22:26;;;;;;;0.73;0.73;;;37.50;37.30;38.00;96462.00;;;;5094761;28;20834;-88
2022/08/04 11:25:08;;;;;;;1.17;0.75;;;37.30;37.70;37.80;96466.00;;;;5093749;28;20239;-89
2022/08/04 11:27:55;;;;;;;1.60;0.47;;;37.10;36.90;37.60;96460.00;;;;5102176;28;20640;-89
2022/08/04 11:30:30;;;;;;;0.40;0.40;;;37.00;36.00;37.50;96473.00;;;;5110888;28;20210;-89
2022/08/04 11:33:09;;;;;;;0.65;0.65;;;36.80;36.20;37.30;96459.00;;;;5098238;28;20190;-89
2022/08/04 11:35:47;;;;;;;0.80;0.70;;;36.60;35.90;37.10;96454.00;;;;5106052;28;20269;-89
2022/08/04 11:38:27;;;;;;;0.90;0.70;;;36.50;36.10;36.90;96447.00;;;;5104797;28;20186;-88
2022/08/04 11:41:03;;;;;;;1.10;1.00;;;36.30;36.30;36.80;96454.00;;;;5096955;28;20214;-88
2022/08/04 11:43:40;;;;;;;2.22;0.90;;;36.10;36.00;36.70;96455.00;;;;5099228;28;20302;-88
2022/08/04 11:46:17;;;;;;;0.90;0.90;;;36.00;36.60;36.60;96450.00;;;;5099109;28;20595;-88
2022/08/04 11:48:56;;;;;;;1.27;0.50;;;35.90;36.60;36.50;96457.00;;;;5076659;28;20284;-88
2022/08/04 11:51:27;;;;;;;0.68;0.60;;;35.80;37.20;36.40;96454.00;;;;5074757;28;20634;-88
2022/08/04 11:53:56;;;;;;;0.93;0.80;;;35.70;37.10;36.30;96454.00;;;;5086202;28;20215;-88
2022/08/04 11:56:23;;;;;;;1.73;0.73;;;35.60;37.30;36.20;96451.00;;;;5093445;28;20664;-88